createdAt,value
2023-06-29T00:01:12.602Z,99402.69
2023-06-29T00:06:15.446Z,99408.34
2023-06-29T00:11:18.408Z,99407.75
2023-06-29T00:16:23.912Z,99411.50
2023-06-29T00:21:59.148Z,99410.13
2023-06-29T00:27:02.028Z,99409.75
2023-06-29T00:32:07.447Z,99406.72
2023-06-29T00:37:10.267Z,99401.75
2023-06-29T00:42:13.825Z,99394.59
2023-06-29T00:47:18.049Z,99396.97
2023-06-29T00:52:21.678Z,99383.66
2023-06-29T00:57:25.254Z,99380.63
2023-06-29T01:02:31.139Z,99384.00
2023-06-29T01:07:39.078Z,99386.50
2023-06-29T01:12:42.728Z,99389.56
2023-06-29T01:17:47.714Z,99383.69
2023-06-29T01:22:58.174Z,99382.00
2023-06-29T01:28:07.405Z,99381.94
2023-06-29T01:33:11.719Z,99379.06
2023-06-29T01:38:17.896Z,99377.56
2023-06-29T01:43:23.157Z,99377.78
2023-06-29T01:48:26.586Z,99367.56
2023-06-29T01:53:31.872Z,99365.59
2023-06-29T01:58:37.130Z,99357.34
2023-06-29T02:03:40.887Z,99359.44
2023-06-29T02:08:43.993Z,99346.06
2023-06-29T02:13:48.538Z,99356.31
2023-06-29T02:18:51.413Z,99353.66
2023-06-29T02:23:54.267Z,99349.56
2023-06-29T02:28:58.525Z,99347.81
2023-06-29T02:34:01.334Z,99340.28
2023-06-29T02:39:05.792Z,99333.78
2023-06-29T02:44:10.380Z,99335.56
2023-06-29T02:49:13.515Z,99317.81
2023-06-29T02:54:17.340Z,99319.25
2023-06-29T02:59:22.856Z,99331.00
2023-06-29T03:04:25.640Z,99322.06
2023-06-29T03:09:30.452Z,99330.97
2023-06-29T03:14:34.617Z,99335.94
2023-06-29T03:19:37.580Z,99326.06
2023-06-29T03:24:40.432Z,99319.34
2023-06-29T03:29:44.770Z,99309.56
2023-06-29T03:34:47.757Z,99317.00
2023-06-29T03:39:50.623Z,99315.72
2023-06-29T03:44:54.822Z,99312.28
2023-06-29T03:49:57.676Z,99316.75
2023-06-29T03:55:00.378Z,99310.88
2023-06-29T04:00:05.291Z,99309.09
2023-06-29T04:05:15.554Z,99303.94
2023-06-29T04:10:18.455Z,99290.06
2023-06-29T04:15:22.948Z,99285.84
2023-06-29T04:20:25.777Z,99287.81
2023-06-29T04:25:28.577Z,99286.69
2023-06-29T04:30:32.806Z,99278.44
2023-06-29T04:35:37.057Z,99279.72
2023-06-29T04:40:40.104Z,99284.19
2023-06-29T04:45:44.476Z,99287.13
2023-06-29T04:50:47.499Z,99280.31
2023-06-29T04:55:50.316Z,99277.25
2023-06-29T05:00:55.202Z,99284.53
2023-06-29T05:05:58.009Z,99278.19
2023-06-29T05:11:00.881Z,99276.31
2023-06-29T05:16:05.833Z,99260.41
2023-06-29T05:21:08.852Z,99270.19
2023-06-29T05:26:11.754Z,99267.97
2023-06-29T05:31:16.695Z,99269.09
2023-06-29T05:43:00.317Z,99265.59
2023-06-29T05:48:04.652Z,99266.69
2023-06-29T05:53:21.562Z,99273.84
2023-06-29T05:58:25.097Z,99275.53
2023-06-29T06:03:30.105Z,99262.75
2023-06-29T06:08:32.932Z,99260.63
2023-06-29T06:13:35.655Z,99266.50
2023-06-29T06:18:39.787Z,99260.59
2023-06-29T06:23:42.596Z,99255.88
2023-06-29T06:28:45.447Z,99263.41
2023-06-29T06:33:53.788Z,99261.84
2023-06-29T06:38:56.657Z,99260.50
2023-06-29T06:43:59.790Z,99258.44
2023-06-29T06:49:04.666Z,99260.88
2023-06-29T06:54:22.846Z,99263.63
2023-06-29T06:59:25.760Z,99268.06
2023-06-29T07:10:08.382Z,99262.53
2023-06-29T07:16:26.694Z,99258.78
2023-06-29T07:27:18.032Z,99259.13
2023-06-29T07:32:20.795Z,99256.38
2023-06-29T07:37:24.265Z,99252.31
2023-06-29T07:42:38.851Z,99252.78
2023-06-29T07:53:56.359Z,99255.22
2023-06-29T07:59:00.558Z,99251.38
2023-06-29T08:04:04.912Z,99257.72
2023-06-29T08:09:08.179Z,99257.59
2023-06-29T08:14:15.218Z,99254.06
2023-06-29T08:19:18.462Z,99252.50
2023-06-29T08:24:21.188Z,99249.38
2023-06-29T08:29:25.430Z,99250.75
2023-06-29T08:34:28.477Z,99252.91
2023-06-29T08:39:31.177Z,99242.47
2023-06-29T08:44:35.524Z,99245.47
2023-06-29T08:50:08.555Z,99238.19
2023-06-29T08:55:11.274Z,99235.84
2023-06-29T09:00:16.748Z,99239.25
2023-06-29T09:05:20.561Z,99233.75
2023-06-29T09:10:23.728Z,99235.31
2023-06-29T09:15:29.415Z,99229.13
2023-06-29T09:20:35.883Z,99237.44
2023-06-29T09:25:41.390Z,99228.97
2023-06-29T09:31:34.104Z,99221.69
2023-06-29T09:36:37.043Z,99217.31
2023-06-29T09:41:46.686Z,99220.78
2023-06-29T09:52:05.113Z,99215.34
2023-06-29T09:57:11.806Z,99220.19
2023-06-29T10:02:16.820Z,99217.56
2023-06-29T10:07:20.546Z,99216.34
2023-06-29T10:12:24.814Z,99216.09
2023-06-29T10:18:03.766Z,99211.56
2023-06-29T10:23:07.646Z,99209.09
2023-06-29T10:28:10.925Z,99212.91
2023-06-29T10:33:15.927Z,99206.00
2023-06-29T10:38:18.906Z,99206.25
2023-06-29T10:43:22.078Z,99206.91
2023-06-29T10:48:47.091Z,99198.50
2023-06-29T10:53:51.091Z,99188.56
2023-06-29T10:59:01.034Z,99189.41
2023-06-29T11:04:05.905Z,99189.88
2023-06-29T11:09:13.217Z,99188.41
2023-06-29T11:14:16.271Z,99189.94
2023-06-29T11:19:22.213Z,99190.03
2023-06-29T11:24:25.083Z,99182.16
2023-06-29T11:29:29.135Z,99177.13
2023-06-29T11:34:33.364Z,99173.13
2023-06-29T11:39:36.183Z,99171.00
2023-06-29T11:44:39.005Z,99166.69
2023-06-29T11:49:43.167Z,99171.13
2023-06-29T11:54:48.069Z,99165.19
2023-06-29T11:59:50.821Z,99156.19
2023-06-29T12:04:59.655Z,99149.66
2023-06-29T12:10:03.676Z,99161.59
2023-06-29T12:15:13.653Z,99144.31
2023-06-29T12:20:19.317Z,99140.78
2023-06-29T12:25:23.487Z,99139.69
2023-06-29T12:30:26.310Z,99136.56
2023-06-29T12:35:33.659Z,99136.25
2023-06-29T12:40:36.572Z,99144.13
2023-06-29T12:45:39.453Z,99136.25
2023-06-29T12:50:43.802Z,99133.34
2023-06-29T12:55:47.362Z,99129.78
2023-06-29T13:00:50.598Z,99135.72
2023-06-29T13:05:54.728Z,99147.72
2023-06-29T13:10:57.584Z,99132.84
2023-06-29T13:16:00.427Z,99123.38
2023-06-29T13:21:04.722Z,99133.66
2023-06-29T13:26:07.566Z,99132.91
2023-06-29T13:31:10.382Z,99132.56
2023-06-29T13:36:14.596Z,99128.88
2023-06-29T13:41:20.176Z,99132.09
2023-06-29T13:46:22.914Z,99125.34
2023-06-29T13:51:27.761Z,99127.19
2023-06-29T13:56:32.689Z,99123.72
2023-06-29T14:02:19.592Z,99117.50
2023-06-29T14:07:24.051Z,99120.78
2023-06-29T14:12:26.981Z,99121.78
2023-06-29T14:17:40.722Z,99128.00
2023-06-29T14:22:45.084Z,99131.38
2023-06-29T14:27:47.985Z,99131.75
2023-06-29T14:33:19.598Z,99123.81
2023-06-29T14:39:29.131Z,99119.69
2023-06-29T15:02:39.130Z,99112.22
2023-06-29T15:07:42.645Z,99097.59
2023-06-29T15:12:45.529Z,99100.63
2023-06-29T15:17:49.667Z,99091.59
2023-06-29T15:22:52.506Z,99085.66
2023-06-29T15:27:57.097Z,99084.38
2023-06-29T15:33:01.363Z,99080.28
2023-06-29T15:38:04.235Z,99078.97
2023-06-29T15:43:07.358Z,99082.50
2023-06-29T15:48:11.670Z,99078.63
2023-06-29T15:53:14.777Z,99089.50
2023-06-29T15:58:17.767Z,99086.16
2023-06-29T16:03:22.731Z,99071.03
2023-06-29T16:08:29.390Z,99074.75
2023-06-29T16:13:32.235Z,99055.91
2023-06-29T16:18:36.444Z,99052.13
2023-06-29T16:23:39.738Z,99051.81
2023-06-29T16:28:42.554Z,99047.16
2023-06-29T16:33:46.682Z,99044.31
2023-06-29T16:38:49.471Z,99035.88
2023-06-29T16:43:53.553Z,99042.53
2023-06-29T16:48:59.869Z,99036.47
2023-06-29T16:54:02.699Z,99032.22
2023-06-29T16:59:05.543Z,99043.34
2023-06-29T17:04:09.888Z,99031.97
2023-06-29T17:09:12.757Z,99040.66
2023-06-29T17:14:15.549Z,99042.19
2023-06-29T17:19:19.637Z,99038.50
2023-06-29T17:24:22.397Z,99042.72
2023-06-29T17:29:25.127Z,99044.34
2023-06-29T17:34:29.147Z,99037.50
2023-06-29T17:39:31.857Z,99040.78
2023-06-29T17:44:34.758Z,99046.25
2023-06-29T17:49:38.913Z,99054.34
2023-06-29T17:54:41.648Z,99047.84
2023-06-29T17:59:53.380Z,99051.63
2023-06-29T18:04:59.689Z,99044.56
2023-06-29T18:10:06.049Z,99051.09
2023-06-29T18:15:09.866Z,99039.16
2023-06-29T18:26:57.782Z,99039.72
2023-06-29T18:32:56.247Z,99037.63
2023-06-29T18:38:00.499Z,99042.84
2023-06-29T18:43:04.155Z,99038.31
2023-06-29T18:48:07.344Z,99030.69
2023-06-29T18:53:11.385Z,99029.88
2023-06-29T18:58:14.100Z,99028.00
2023-06-29T19:03:16.972Z,99028.00
2023-06-29T19:08:23.691Z,99031.53
2023-06-29T19:13:28.218Z,99028.31
2023-06-29T19:18:31.032Z,99025.13
2023-06-29T19:23:35.162Z,99034.56
2023-06-29T19:35:09.620Z,99048.41
2023-06-29T19:40:14.654Z,99056.56
2023-06-29T19:45:17.541Z,99064.28
2023-06-29T19:55:53.814Z,99076.63
2023-06-29T20:27:32.006Z,99096.56
2023-06-29T20:50:16.600Z,99061.25
2023-06-29T21:14:34.510Z,99083.50
2023-06-29T21:19:37.802Z,99080.72
2023-06-29T21:24:42.548Z,99084.66
2023-06-29T21:29:46.619Z,99089.59
2023-06-29T21:34:49.742Z,99076.00
2023-06-29T21:39:53.836Z,99074.09
2023-06-29T21:44:56.531Z,99083.16
2023-06-29T21:49:59.297Z,99077.06
2023-06-29T21:55:03.348Z,99087.09
2023-06-29T22:00:10.497Z,99085.13
2023-06-29T22:05:19.088Z,99083.50
2023-06-29T22:10:31.766Z,99089.75
2023-06-29T22:15:35.857Z,99091.03
2023-06-29T22:20:38.698Z,99086.13
2023-06-29T22:25:42.792Z,99074.25
2023-06-29T22:30:45.873Z,99063.44
2023-06-29T22:35:49.433Z,99078.84
2023-06-29T22:40:54.083Z,99062.56
2023-06-29T22:45:56.881Z,99055.69
2023-06-29T22:51:00.231Z,99069.94
2023-06-29T22:56:07.230Z,99063.06
2023-06-29T23:01:16.832Z,99065.38
2023-06-29T23:06:19.550Z,99069.59
2023-06-29T23:11:26.645Z,99065.38
2023-06-29T23:16:47.059Z,99060.41
2023-06-29T23:21:50.143Z,99067.94
2023-06-29T23:26:54.291Z,99075.00
2023-06-29T23:31:57.060Z,99072.69
2023-06-29T23:36:59.827Z,99069.25
2023-06-29T23:42:12.805Z,99067.75
2023-06-29T23:47:15.569Z,99071.56
2023-06-29T23:52:25.832Z,99060.72
2023-06-29T23:57:30.242Z,99059.25
